Aérodrome :
LOGIN :

S'inscrire | Disclaimer

   EN    FR    IT 

 










Légende :    VFR   VFR Marginal   IFR   IFR Intensif   IFR Très Intensif
Visi : 
Plafond : 
>= 8 km
>= 3000ft
5 à 8 km
1000 à 3000 ft
1500m à 5 km
500 à 1000 ft
800 à 1500m
200 à 500 ft
< 800m
< 200 ft
Symboles :   Orages  Brouillard  Fortes neiges  Fortes précipitations  Vent > 20 kt
SIGMETs :   Divers  Orages  Givrage  Turbulence  Onde Orograph.  Cendres Volcan.






- Altitude de l'aérodrome : 289 ft
- Code IATA : ZAD


LDZD - Zadar

DERNIER METAR :
  • 032130Z 00000KT CAVOK M02/M05 Q1022

METARs EXPIRÉS :
  • 032100Z VRB01KT CAVOK M01/M04 Q1022
  • 032030Z VRB01KT CAVOK M00/M05 Q1022
  • 032000Z VRB03KT CAVOK 00/M05 Q1022
  • 031930Z 07007KT 040V100 CAVOK 03/M07 Q1022
  • 031900Z 07006KT 030V120 CAVOK 04/M06 Q1022 NOSIG
  • 031830Z 08005KT CAVOK 03/M05 Q1021 NOSIG
  • 031800Z 07008KT CAVOK 04/M04 Q1021 NOSIG
  • 031730Z 06009KT 030V100 CAVOK 04/M04 Q1021 NOSIG
  • 031700Z 06008KT CAVOK 04/M03 Q1020 NOSIG
  • 031630Z 07008KT 030V100 CAVOK 04/M03 Q1020 NOSIG

TAF TAF LDZD
Valide du 03 à 18h jusqu'au 04 à 18h UTC


031725Z 0318/0418 07006KT CAVOK TX09/0412Z TNM04/0405Z
TEMPO 0411/0416 13007KT



MET'MAP, la Météo Aéronautique d'un coup d'oeil ! - Copyright ORBIFLY Décembre 2007 - Disclaimer

ORBIFLY MET'MAP TEAM :

Programmation & Développement : Alexandra Zaïnal
Sur une idée originale de : Baudouin d'Aumeries
Soutien technique & logistique : Manuel Goepfert
Assistance : Marc-Olivier Méhu




SOURCES & CREDITS :

   NOAA